Time;durP1;ratioP1;P1;durP2;ratioP2;P2;SDS_P1;SDS_P2;PMS_P1;PMS_P2;Temp;Humidity;BMP_temperature;BMP_pressure;BME280_temperature;BME280_humidity;BME280_pressure;Samples;Min_cycle;Max_cycle;Signal;HPM_P1;HPM_P2
2023/05/11 00:00:35;;;;;;;3.80;1.83;;;;;;;12.73;65.15;100469.38;5548176;32;34478;-69
2023/05/11 00:03:38;;;;;;;7.18;2.20;;;;;;;12.70;65.63;100467.09;5548158;32;33936;-68
2023/05/11 00:06:40;;;;;;;4.07;2.10;;;;;;;12.70;65.67;100472.41;5547800;32;34077;-69
2023/05/11 00:09:43;;;;;;;4.40;1.90;;;;;;;12.73;65.58;100468.59;5547810;32;33675;-69
2023/05/11 00:12:46;;;;;;;4.75;2.20;;;;;;;12.79;67.20;100463.34;5547961;32;34346;-69
2023/05/11 00:15:48;;;;;;;3.70;2.08;;;;;;;12.93;67.85;100472.38;5547667;32;33837;-69
2023/05/11 00:18:51;;;;;;;3.55;1.90;;;;;;;12.89;66.88;100474.59;5547707;32;33827;-69
2023/05/11 00:21:54;;;;;;;3.55;2.03;;;;;;;12.87;67.18;100465.13;5547645;32;34560;-68
2023/05/11 00:24:57;;;;;;;2.85;2.30;;;;;;;12.85;67.67;100475.13;5547478;32;33911;-69
2023/05/11 00:28:00;;;;;;;4.25;2.15;;;;;;;12.81;67.49;100466.69;5547644;32;33696;-69
2023/05/11 00:31:02;;;;;;;4.47;2.35;;;;;;;12.79;68.29;100465.19;5547538;32;34917;-69
2023/05/11 00:34:05;;;;;;;6.05;2.15;;;;;;;12.73;68.33;100461.41;5547584;32;34903;-68
2023/05/11 00:37:08;;;;;;;4.25;2.42;;;;;;;12.65;70.22;100466.81;5547396;32;34487;-68
2023/05/11 00:40:11;;;;;;;5.47;2.33;;;;;;;12.62;70.62;100457.34;5547412;32;35165;-68
2023/05/11 00:43:14;;;;;;;3.15;2.28;;;;;;;12.70;70.65;100451.13;5547420;32;34631;-69
2023/05/11 00:46:17;;;;;;;3.92;2.42;;;;;;;12.64;70.72;100459.81;5547283;32;33902;-69
2023/05/11 00:49:21;;;;;;;5.45;2.10;;;;;;;12.58;70.73;100453.41;5547516;32;33806;-69
2023/05/11 00:52:24;;;;;;;5.10;2.30;;;;;;;12.55;73.08;100459.06;5547201;32;33825;-69
2023/05/11 00:55:27;;;;;;;3.00;2.20;;;;;;;12.60;71.81;100451.38;5546190;32;34774;-69
2023/05/11 00:58:30;;;;;;;4.25;2.30;;;;;;;12.60;71.26;100454.03;5547160;32;34745;-69
2023/05/11 01:01:34;;;;;;;4.93;2.30;;;;;;;12.55;71.33;100453.75;5547116;32;34074;-69
2023/05/11 01:04:37;;;;;;;7.12;2.05;;;;;;;12.53;71.72;100454.94;5547072;32;33877;-69
2023/05/11 01:07:58;;;;;;;6.35;2.47;;;;;;;12.53;72.24;100452.28;5547083;32;33785;-69
2023/05/11 01:11:20;;;;;;;6.90;2.53;;;;;;;12.55;71.84;100448.41;5547313;32;33603;-69
2023/05/11 01:14:34;;;;;;;7.57;2.30;;;;;;;12.58;72.50;100445.41;5546821;32;33924;-69
2023/05/11 01:17:54;;;;;;;4.07;2.30;;;;;;;12.59;71.89;100455.03;5546263;32;33736;-69
2023/05/11 01:21:00;;;;;;;5.20;2.12;;;;;;;12.73;71.66;100450.75;5530128;32;33553;-69
2023/05/11 01:24:02;;;;;;;5.68;2.42;;;;;;;12.70;71.52;100450.28;5527643;32;34691;-69
2023/05/11 01:27:31;;;;;;;7.15;2.78;;;;;;;12.77;72.41;100448.59;5527565;32;34033;-69
2023/05/11 01:30:39;;;;;;;4.47;2.47;;;;;;;12.76;70.72;100450.41;5527307;32;33697;-69
2023/05/11 01:34:04;;;;;;;3.28;2.40;;;;;;;12.84;71.37;100445.00;5539078;32;33800;-69
2023/05/11 01:37:20;;;;;;;5.65;2.30;;;;;;;12.83;71.41;100455.84;5527867;32;33709;-69
2023/05/11 01:40:26;;;;;;;4.28;2.30;;;;;;;12.80;72.39;100465.00;5529728;32;34596;-68
2023/05/11 01:43:34;;;;;;;5.07;2.12;;;;;;;12.82;72.28;100448.88;5528937;32;33688;-68
2023/05/11 01:46:37;;;;;;;4.32;2.47;;;;;;;12.81;74.29;100450.69;5529760;32;34690;-69
2023/05/11 01:49:44;;;;;;;3.45;2.20;;;;;;;12.70;73.17;100448.47;5529618;32;33615;-69
2023/05/11 01:52:49;;;;;;;4.22;2.20;;;;;;;12.51;73.52;100452.44;5529633;32;33628;-69
2023/05/11 01:55:55;;;;;;;4.87;2.03;;;;;;;12.42;74.13;100444.72;5529744;32;32620;-69
2023/05/11 01:58:59;;;;;;;4.40;2.30;;;;;;;12.39;74.01;100445.88;5541744;32;34839;-68
2023/05/11 02:02:03;;;;;;;8.68;2.58;;;;;;;12.44;73.80;100445.38;5529550;32;33723;-69
2023/05/11 02:05:08;;;;;;;5.65;2.53;;;;;;;12.47;73.93;100447.66;5529922;32;33712;-68
2023/05/11 02:08:12;;;;;;;2.97;2.55;;;;;;;12.58;72.97;100439.28;5528564;32;33866;-69
2023/05/11 02:11:17;;;;;;;3.53;2.12;;;;;;;12.62;72.50;100448.53;5529483;32;33774;-68
2023/05/11 02:14:23;;;;;;;4.90;2.42;;;;;;;12.63;73.61;100440.34;5529290;32;33707;-69
2023/05/11 02:17:28;;;;;;;4.00;2.67;;;;;;;12.67;74.46;100440.84;5529295;32;35276;-68
2023/05/11 02:20:32;;;;;;;3.92;2.45;;;;;;;12.74;85.06;100441.78;5529638;32;33837;-68
2023/05/11 02:23:36;;;;;;;4.10;2.60;;;;;;;12.81;87.77;100432.06;5529453;32;33617;-68
2023/05/11 02:26:39;;;;;;;4.28;2.70;;;;;;;12.70;88.67;100431.66;5529372;32;33943;-69
2023/05/11 02:29:41;;;;;;;6.95;2.67;;;;;;;12.73;87.00;100434.78;5529248;32;34146;-68
2023/05/11 02:32:50;;;;;;;3.28;2.37;;;;;;;12.68;86.50;100436.34;5529304;32;33829;-69
2023/05/11 02:35:56;;;;;;;5.78;2.58;;;;;;;12.61;86.32;100433.56;5529242;32;33803;-68
2023/05/11 02:39:08;;;;;;;3.22;2.50;;;;;;;12.49;87.44;100433.16;5529227;32;33846;-68
2023/05/11 02:42:17;;;;;;;4.40;2.62;;;;;;;12.43;87.49;100430.41;5528601;32;33836;-68
2023/05/11 02:45:22;;;;;;;6.15;2.40;;;;;;;12.34;88.07;100423.50;5529136;32;34335;-69
2023/05/11 02:48:31;;;;;;;5.30;2.47;;;;;;;12.27;88.30;100423.37;5528305;32;33735;-68
2023/05/11 02:51:36;;;;;;;4.50;2.65;;;;;;;12.29;86.77;100418.72;5528944;32;35307;-68
2023/05/11 02:54:41;;;;;;;4.62;2.30;;;;;;;12.19;85.20;100426.09;5529044;32;34596;-69
2023/05/11 02:57:44;;;;;;;7.10;2.40;;;;;;;12.12;85.71;100428.62;5541053;32;34582;-68
2023/05/11 03:00:48;;;;;;;7.12;2.95;;;;;;;12.03;86.64;100420.88;5541355;32;33665;-68
2023/05/11 03:03:51;;;;;;;4.62;2.40;;;;;;;11.91;87.28;100420.44;5529096;32;33696;-68
2023/05/11 03:06:54;;;;;;;5.07;2.65;;;;;;;11.98;87.21;100425.91;5529048;32;33903;-69
2023/05/11 03:09:57;;;;;;;4.80;2.30;;;;;;;11.85;86.54;100423.00;5529091;32;33916;-68
2023/05/11 03:13:01;;;;;;;6.62;2.30;;;;;;;11.81;86.35;100424.34;5528986;32;34655;-68
2023/05/11 03:16:05;;;;;;;5.72;2.47;;;;;;;11.85;85.33;100421.16;5529167;32;33663;-68
2023/05/11 03:19:09;;;;;;;4.20;2.55;;;;;;;11.85;85.27;100421.16;5529204;32;34767;-69
2023/05/11 03:22:12;;;;;;;5.40;2.28;;;;;;;11.89;84.59;100422.47;5528925;32;33730;-68
2023/05/11 03:25:16;;;;;;;4.00;2.33;;;;;;;11.90;84.50;100424.13;5531900;32;34066;-68
2023/05/11 03:28:21;;;;;;;4.68;2.35;;;;;;;11.94;84.49;100430.75;5529089;32;34388;-68
2023/05/11 03:31:26;;;;;;;5.90;2.37;;;;;;;11.94;84.57;100430.75;5528663;32;34115;-68
2023/05/11 03:34:29;;;;;;;3.55;2.25;;;;;;;12.06;83.83;100429.31;5528634;32;34358;-68
2023/05/11 03:37:35;;;;;;;4.10;2.30;;;;;;;12.05;84.10;100429.53;5527798;32;34789;-68
2023/05/11 03:40:41;;;;;;;4.15;2.22;;;;;;;12.06;84.55;100431.97;5528619;32;34487;-67
2023/05/11 03:43:50;;;;;;;8.27;2.55;;;;;;;12.11;84.41;100431.44;5528892;32;34628;-70
2023/05/11 03:46:55;;;;;;;6.70;2.20;;;;;;;12.11;83.69;100445.56;5528851;32;34309;-69
2023/05/11 03:49:59;;;;;;;3.92;2.30;;;;;;;12.08;83.81;100437.97;5528566;32;33616;-69
2023/05/11 03:53:03;;;;;;;3.95;2.40;;;;;;;12.12;84.11;100433.94;5528761;32;33782;-69
2023/05/11 03:56:07;;;;;;;3.20;2.35;;;;;;;12.02;84.37;100440.47;5528464;32;33864;-69
2023/05/11 03:59:14;;;;;;;5.70;2.55;;;;;;;11.92;84.86;100446.03;5528469;32;33841;-69
2023/05/11 04:02:17;;;;;;;4.50;2.25;;;;;;;11.83;86.19;100446.25;5528334;32;34075;-69
2023/05/11 04:05:20;;;;;;;7.95;2.55;;;;;;;11.70;87.74;100449.44;5528579;32;33856;-69
2023/05/11 04:08:22;;;;;;;7.68;2.40;;;;;;;11.63;88.47;100441.31;5527619;32;34017;-69
2023/05/11 04:11:26;;;;;;;3.97;2.35;;;;;;;11.59;89.05;100453.31;5528494;32;34250;-68
2023/05/11 04:14:29;;;;;;;6.80;2.40;;;;;;;11.55;90.17;100452.00;5528259;32;34091;-69
2023/05/11 04:17:32;;;;;;;6.30;2.40;;;;;;;11.48;90.20;100455.50;5527627;32;34561;-69
2023/05/11 04:20:34;;;;;;;9.98;2.65;;;;;;;11.46;90.54;100454.84;5528320;32;33829;-69
2023/05/11 04:23:37;;;;;;;6.35;2.50;;;;;;;11.39;91.75;100459.19;5528436;32;32665;-69
2023/05/11 04:26:40;;;;;;;5.28;2.80;;;;;;;11.40;93.37;100463.50;5528231;32;33691;-68
2023/05/11 04:29:44;;;;;;;5.82;2.70;;;;;;;11.36;93.56;100460.37;5528274;32;34339;-68
2023/05/11 04:32:46;;;;;;;8.20;2.50;;;;;;;11.44;93.14;100470.13;5528026;32;33882;-68
2023/05/11 04:35:50;;;;;;;5.68;2.53;;;;;;;11.52;92.39;100478.88;5528083;32;34737;-68
2023/05/11 04:38:53;;;;;;;6.47;2.97;;;;;;;11.71;93.63;100470.50;5528224;32;33655;-68
2023/05/11 04:41:56;;;;;;;7.87;2.78;;;;;;;11.89;91.54;100472.97;5528051;32;33894;-67
2023/05/11 04:44:59;;;;;;;6.95;2.62;;;;;;;12.22;84.92;100473.59;5526694;32;33910;-68
2023/05/11 04:48:02;;;;;;;7.95;2.70;;;;;;;12.20;86.57;100472.94;5523722;32;34869;-69
2023/05/11 04:51:05;;;;;;;8.88;2.33;;;;;;;12.32;84.49;100474.22;5526504;32;33651;-68
2023/05/11 04:54:09;;;;;;;7.20;2.78;;;;;;;12.48;80.11;100478.59;5527585;32;34610;-69
2023/05/11 04:57:11;;;;;;;7.57;2.40;;;;;;;12.57;71.55;100473.03;5528779;32;34359;-68
2023/05/11 05:00:15;;;;;;;10.88;2.97;;;;;;;12.91;70.36;100479.75;5529550;32;33905;-68
2023/05/11 05:03:18;;;;;;;8.40;2.65;;;;;;;13.14;67.34;100479.72;5530145;32;34876;-66
2023/05/11 05:06:21;;;;;;;5.37;2.22;;;;;;;12.99;65.97;100479.66;5547155;32;33653;-68
2023/05/11 05:09:23;;;;;;;9.13;2.50;;;;;;;12.92;66.33;100484.06;5543525;32;33695;-68
2023/05/11 05:12:26;;;;;;;4.10;2.53;;;;;;;12.90;65.75;100486.91;5526374;32;33504;-68
2023/05/11 05:15:28;;;;;;;75.65;4.60;;;;;;;12.91;65.08;100485.91;5537197;32;33748;-67
2023/05/11 05:18:32;;;;;;;7.10;2.50;;;;;;;12.90;65.67;100481.56;5528039;32;34078;-67
2023/05/11 05:21:35;;;;;;;5.97;4.47;;;;;;;12.68;64.89;100490.44;5526755;32;33592;-68
2023/05/11 05:24:38;;;;;;;8.57;2.78;;;;;;;12.74;64.96;100484.37;5527828;32;34166;-68
2023/05/11 05:27:41;;;;;;;10.35;2.87;;;;;;;12.74;64.33;100492.34;5535275;32;33897;-68
2023/05/11 05:30:44;;;;;;;6.75;2.55;;;;;;;12.86;64.55;100495.44;5539950;32;34074;-69
2023/05/11 05:33:47;;;;;;;9.30;2.92;;;;;;;12.80;63.92;100496.12;5527577;32;34614;-68
2023/05/11 05:36:51;;;;;;;8.65;2.70;;;;;;;12.66;65.28;100497.75;5527523;32;33555;-69
2023/05/11 05:39:54;;;;;;;8.18;2.97;;;;;;;12.75;64.77;100487.84;5526871;32;34594;-67
2023/05/11 05:42:57;;;;;;;8.27;2.80;;;;;;;12.72;64.74;100490.88;5528061;32;33878;-68
2023/05/11 05:46:00;;;;;;;9.30;2.78;;;;;;;12.70;63.32;100508.84;5543655;32;33487;-68
2023/05/11 05:49:03;;;;;;;11.25;2.80;;;;;;;12.60;63.69;100496.62;5541553;32;33881;-69
2023/05/11 05:52:06;;;;;;;5.82;2.80;;;;;;;12.62;64.30;100501.78;5540991;32;33836;-68
2023/05/11 05:55:09;;;;;;;10.52;2.72;;;;;;;12.71;63.88;100495.38;5536020;32;34053;-69
2023/05/11 05:58:13;;;;;;;4.22;2.45;;;;;;;12.74;62.95;100504.81;5542568;32;34573;-69
2023/05/11 06:01:16;;;;;;;8.02;3.08;;;;;;;12.88;62.90;100501.37;5528172;32;33709;-69
2023/05/11 06:04:19;;;;;;;5.22;2.97;;;;;;;13.02;62.95;100509.41;5537689;32;32391;-68
2023/05/11 06:07:22;;;;;;;7.80;2.70;;;;;;;13.22;63.67;100512.41;5524866;32;32731;-68
2023/05/11 06:10:24;;;;;;;8.88;2.53;;;;;;;13.38;62.53;100516.75;5532872;32;34267;-68
2023/05/11 06:13:27;;;;;;;4.45;2.70;;;;;;;13.57;61.24;100505.56;5530249;32;34512;-70
2023/05/11 06:16:31;;;;;;;5.60;2.95;;;;;;;13.77;60.29;100504.00;5534705;32;34386;-70
2023/05/11 06:19:34;;;;;;;7.40;3.45;;;;;;;13.87;59.95;100506.38;5535641;32;33933;-70
2023/05/11 06:22:36;;;;;;;9.15;3.28;;;;;;;14.22;59.54;100518.91;5529197;32;33986;-69
2023/05/11 06:25:39;;;;;;;8.32;2.80;;;;;;;14.32;59.94;100514.09;5535999;32;33532;-68
2023/05/11 06:28:43;;;;;;;6.30;3.20;;;;;;;14.53;58.74;100518.66;5536966;32;34189;-69
2023/05/11 06:31:51;;;;;;;7.87;2.83;;;;;;;14.67;59.78;100515.09;5538863;32;34471;-69
2023/05/11 06:34:54;;;;;;;20.20;3.05;;;;;;;14.69;59.13;100515.72;5536145;32;34148;-68
2023/05/11 06:37:57;;;;;;;5.43;2.65;;;;;;;14.81;58.23;100515.22;5537220;32;33672;-68
2023/05/11 06:41:00;;;;;;;6.45;2.83;;;;;;;14.77;58.73;100517.44;5538635;32;33591;-68
2023/05/11 06:44:04;;;;;;;5.40;2.58;;;;;;;14.90;58.45;100512.22;5535437;32;33931;-68
2023/05/11 06:47:09;;;;;;;5.22;2.72;;;;;;;15.16;58.03;100515.09;5534038;32;34934;-67
2023/05/11 06:50:12;;;;;;;5.07;2.80;;;;;;;15.22;58.80;100516.19;5545620;32;34920;-67
2023/05/11 06:53:16;;;;;;;16.15;3.10;;;;;;;15.55;57.24;100511.91;5547029;32;35232;-67
2023/05/11 06:56:20;;;;;;;7.32;2.47;;;;;;;15.70;55.98;100517.12;5541532;32;33969;-69
2023/05/11 06:59:23;;;;;;;6.05;2.95;;;;;;;15.91;55.41;100505.50;5528525;32;33920;-70
2023/05/11 07:02:26;;;;;;;6.43;2.80;;;;;;;15.74;55.69;100504.19;5538252;32;33756;-68
2023/05/11 07:05:30;;;;;;;5.68;2.58;;;;;;;16.13;54.76;100500.84;5546927;32;33983;-69
2023/05/11 07:08:32;;;;;;;7.32;2.53;;;;;;;16.18;54.52;100501.06;5534969;32;34743;-66
2023/05/11 07:11:36;;;;;;;7.50;2.50;;;;;;;16.12;53.87;100492.00;5533357;32;33581;-67
2023/05/11 07:14:38;;;;;;;5.20;2.47;;;;;;;16.31;53.91;100488.56;5537800;32;33719;-66
2023/05/11 07:17:41;;;;;;;7.32;2.50;;;;;;;16.78;52.07;100497.53;5539163;32;34095;-66
2023/05/11 07:20:48;;;;;;;7.82;2.40;;;;;;;16.93;51.83;100488.25;5536720;32;33588;-66
2023/05/11 07:23:51;;;;;;;6.32;2.10;;;;;;;17.43;51.18;100496.66;5531346;32;33599;-67
2023/05/11 07:26:55;;;;;;;3.95;2.40;;;;;;;17.64;48.08;100490.25;5537158;32;34018;-68
2023/05/11 07:29:58;;;;;;;6.07;2.37;;;;;;;17.70;47.87;100487.53;5531752;32;33824;-67
2023/05/11 07:33:01;;;;;;;5.72;2.22;;;;;;;17.88;47.71;100491.37;5532090;32;33873;-67
2023/05/11 07:36:06;;;;;;;6.72;2.20;;;;;;;18.70;45.86;100491.37;5523280;32;34624;-67
2023/05/11 07:39:09;;;;;;;7.15;2.00;;;;;;;18.77;45.04;100488.66;5540868;32;34386;-68
2023/05/11 07:42:12;;;;;;;9.00;2.15;;;;;;;19.66;43.16;100489.06;5536387;32;34026;-67
2023/05/11 07:45:15;;;;;;;3.53;2.00;;;;;;;19.32;43.05;100484.22;5547785;32;33869;-67
2023/05/11 07:48:17;;;;;;;8.68;2.10;;;;;;;20.04;42.31;100482.62;5544463;32;120438;-67
2023/05/11 07:51:20;;;;;;;5.82;2.30;;;;;;;21.54;39.79;100482.09;5547683;32;33836;-67
2023/05/11 07:54:23;;;;;;;8.25;2.22;;;;;;;20.60;40.38;100485.78;5547711;32;33881;-69
2023/05/11 07:57:26;;;;;;;3.55;1.77;;;;;;;19.76;41.34;100483.97;5529501;32;33754;-68
2023/05/11 08:00:28;;;;;;;6.70;1.87;;;;;;;21.75;38.50;100479.84;5547898;32;33928;-68
2023/05/11 08:03:32;;;;;;;5.82;2.10;;;;;;;22.69;37.68;100490.06;5547808;32;33572;-68
2023/05/11 08:06:34;;;;;;;5.40;1.95;;;;;;;22.70;36.03;100489.03;5547526;32;34718;-69
2023/05/11 08:09:41;;;;;;;5.07;1.80;;;;;;;21.41;38.10;100485.06;5544242;32;33807;-68
2023/05/11 08:12:44;;;;;;;7.70;2.20;;;;;;;22.70;36.03;100482.78;5545267;32;33634;-68
2023/05/11 08:15:47;;;;;;;6.90;1.70;;;;;;;23.29;35.61;100484.81;5547458;32;34545;-68
2023/05/11 08:18:50;;;;;;;6.95;2.10;;;;;;;23.53;34.99;100481.94;5547603;32;34502;-69
2023/05/11 08:21:53;;;;;;;7.70;2.10;;;;;;;24.10;32.74;100474.25;5541046;32;34746;-68
2023/05/11 08:24:55;;;;;;;5.65;1.70;;;;;;;24.19;32.70;100470.87;5528278;32;33652;-68
2023/05/11 08:27:58;;;;;;;50.83;3.17;;;;;;;24.61;32.46;100464.75;5528202;32;33794;-68
2023/05/11 08:31:01;;;;;;;52.10;2.67;;;;;;;24.98;32.01;100467.56;5527737;32;34561;-68
2023/05/11 08:34:06;;;;;;;16.92;2.00;;;;;;;24.88;30.95;100471.00;5527921;32;34894;-69
2023/05/11 08:37:21;;;;;;;11.00;2.05;;;;;;;24.97;31.46;100455.06;5531995;32;34291;-67
2023/05/11 08:40:26;;;;;;;5.22;1.70;;;;;;;26.35;29.50;100469.84;5546909;32;33779;-67
2023/05/11 08:43:31;;;;;;;6.90;1.70;;;;;;;26.57;29.12;100472.34;5546342;32;34376;-67
2023/05/11 08:46:35;;;;;;;21.50;1.92;;;;;;;26.80;28.92;100444.59;5546066;32;33874;-67
2023/05/11 08:49:37;;;;;;;40.45;2.72;;;;;;;26.14;28.53;100453.75;5547149;32;34214;-67
2023/05/11 08:52:40;;;;;;;7.18;1.50;;;;;;;26.79;27.68;100451.09;5545921;32;34527;-67
2023/05/11 08:55:45;;;;;;;3.20;1.42;;;;;;;26.30;27.58;100455.41;5538962;32;34033;-67
2023/05/11 08:58:49;;;;;;;45.80;3.53;;;;;;;26.11;29.14;100448.81;5527459;32;34025;-67
2023/05/11 09:01:53;;;;;;;15.13;2.25;;;;;;;25.69;29.39;100440.81;5527721;32;33863;-66
2023/05/11 09:04:58;;;;;;;6.37;1.52;;;;;;;25.87;29.60;100434.91;5524166;32;34656;-66
2023/05/11 09:08:04;;;;;;;13.40;2.15;;;;;;;25.20;30.84;100441.09;5534223;32;34139;-66
2023/05/11 09:11:08;;;;;;;55.88;3.05;;;;;;;26.40;29.12;100441.84;5539924;32;34470;-67
2023/05/11 09:14:11;;;;;;;8.57;1.92;;;;;;;27.46;28.32;100432.75;5540513;32;34332;-68
2023/05/11 09:17:14;;;;;;;6.15;1.50;;;;;;;27.95;27.26;100417.31;5538632;32;33701;-66
2023/05/11 09:20:25;;;;;;;17.08;2.08;;;;;;;27.47;27.81;100427.03;5528226;32;33693;-68
2023/05/11 09:23:28;;;;;;;16.35;1.75;;;;;;;28.74;25.70;100426.34;5536461;32;34494;-69
2023/05/11 09:26:32;;;;;;;11.82;2.17;;;;;;;27.55;28.05;100422.94;5531812;32;34515;-68
2023/05/11 09:29:35;;;;;;;28.75;2.78;;;;;;;27.85;27.81;100416.53;5533682;32;34475;-67
2023/05/11 09:32:51;;;;;;;11.55;1.60;;;;;;;28.27;26.44;100424.25;5545925;32;33924;-67
2023/05/11 09:35:54;;;;;;;17.58;2.00;;;;;;;26.65;28.36;100411.09;5525129;32;34562;-66
2023/05/11 09:39:02;;;;;;;12.82;1.80;;;;;;;25.98;28.69;100412.09;5527772;32;34135;-66
2023/05/11 09:42:16;;;;;;;12.50;1.75;;;;;;;24.92;30.67;100406.16;5531370;32;34659;-66
2023/05/11 09:45:38;;;;;;;4.55;1.40;;;;;;;24.16;31.12;100408.16;5520112;32;33448;-68
2023/05/11 09:48:44;;;;;;;8.35;1.95;;;;;;;24.81;31.04;100409.84;5537603;32;33599;-67
2023/05/11 09:51:47;;;;;;;6.53;1.50;;;;;;;24.74;30.69;100401.91;5551461;32;34810;-66
2023/05/11 09:54:50;;;;;;;8.30;1.60;;;;;;;24.13;32.23;100401.38;5550245;32;33946;-68
2023/05/11 09:57:56;;;;;;;9.35;1.58;;;;;;;25.89;30.11;100403.66;5547111;32;33800;-68
2023/05/11 10:00:59;;;;;;;4.40;1.50;;;;;;;26.35;28.66;100396.41;5535178;32;33682;-67
2023/05/11 10:04:04;;;;;;;1.33;1.10;;;;;;;27.32;27.49;100402.56;5545877;32;34410;-69
2023/05/11 10:07:32;;;;;;;2.40;1.30;;;;;;;27.08;27.78;100393.37;5552660;32;33959;-68
2023/05/11 10:10:35;;;;;;;2.42;1.40;;;;;;;27.61;27.02;100398.12;5548343;32;34702;-67
2023/05/11 10:13:38;;;;;;;29.98;2.92;;;;;;;25.73;29.03;100393.81;5548182;32;34227;-67
2023/05/11 10:16:42;;;;;;;13.02;1.80;;;;;;;25.70;28.60;100390.81;5548328;32;33760;-67
2023/05/11 10:19:46;;;;;;;4.82;1.42;;;;;;;25.26;29.18;100382.19;5547979;32;33931;-67
2023/05/11 10:22:54;;;;;;;10.05;1.52;;;;;;;24.36;29.70;100375.84;5547870;32;33777;-67
2023/05/11 10:25:57;;;;;;;7.18;1.55;;;;;;;25.00;28.74;100383.94;5548598;32;33816;-67
2023/05/11 10:29:00;;;;;;;3.83;1.52;;;;;;;25.40;27.81;100380.63;5546545;32;33921;-67
2023/05/11 10:32:04;;;;;;;5.65;1.48;;;;;;;25.98;27.53;100379.47;5542876;32;33922;-67
2023/05/11 10:35:08;;;;;;;10.73;1.52;;;;;;;26.87;26.18;100384.44;5540874;32;33480;-68
2023/05/11 10:38:12;;;;;;;5.75;1.40;;;;;;;26.91;25.05;100382.00;5528742;32;34509;-68
2023/05/11 10:41:51;;;;;;;4.65;1.60;;;;;;;26.18;25.68;100368.63;5529999;32;34741;-68
2023/05/11 10:44:58;;;;;;;;;;;;;;;26.10;27.08;100365.63;5531061;32;33551;-68
2023/05/11 10:48:30;;;;;;;3.80;1.67;;;;;;;26.48;26.44;100359.69;5529244;32;34468;-68
2023/05/11 10:51:56;;;;;;;7.25;1.33;;;;;;;26.87;24.80;100364.59;5537914;32;33652;-67
2023/05/11 10:55:16;;;;;;;3.67;1.40;;;;;;;27.60;24.75;100371.12;5542298;32;33954;-67
2023/05/11 10:58:39;;;;;;;5.43;1.30;;;;;;;27.34;25.32;100354.06;5536174;32;34522;-68
2023/05/11 11:01:44;;;;;;;9.57;1.40;;;;;;;28.48;24.15;100362.94;5531631;32;33950;-67
2023/05/11 11:04:49;;;;;;;6.05;1.40;;;;;;;26.16;25.92;100348.22;5533754;32;35478;-69
2023/05/11 11:08:02;;;;;;;4.28;1.20;;;;;;;27.65;24.79;100354.75;5532622;32;34324;-67
2023/05/11 11:11:30;;;;;;;5.75;1.42;;;;;;;27.73;24.91;100337.00;5527891;32;33827;-69
2023/05/11 11:14:57;;;;;;;3.35;1.40;;;;;;;26.03;26.38;100332.44;5529979;32;34310;-71
2023/05/11 11:18:32;;;;;;;6.35;1.58;;;;;;;26.51;25.39;100345.53;5530303;32;34521;-69
2023/05/11 11:21:39;;;;;;;5.80;1.42;;;;;;;27.92;23.87;100338.78;5533023;32;33839;-68
2023/05/11 11:24:44;;;;;;;3.40;1.10;;;;;;;27.09;24.72;100335.09;5542331;32;34924;-70
2023/05/11 11:27:51;;;;;;;6.87;1.50;;;;;;;26.00;26.50;100330.28;5548166;32;32756;-68
2023/05/11 11:31:24;;;;;;;2.15;1.10;;;;;;;26.45;26.06;100329.47;5548243;32;34246;-67
2023/05/11 11:34:27;;;;;;;4.70;1.27;;;;;;;26.38;25.31;100327.84;5547160;32;34553;-68
2023/05/11 11:38:01;;;;;;;2.05;1.27;;;;;;;25.92;26.13;100323.47;5547651;32;33882;-67
2023/05/11 11:41:07;;;;;;;4.65;1.58;;;;;;;28.21;23.51;100325.25;5546815;32;33882;-68
2023/05/11 11:44:20;;;;;;;7.97;1.50;;;;;;;29.36;22.76;100327.88;5533089;32;34423;-68
2023/05/11 11:47:25;;;;;;;2.08;1.20;;;;;;;31.13;21.53;100318.69;5539535;32;34047;-68
2023/05/11 11:50:28;;;;;;;7.12;1.40;;;;;;;32.74;19.50;100332.50;5536536;32;33465;-67
2023/05/11 11:53:39;;;;;;;4.30;1.65;;;;;;;31.79;20.07;100328.25;5537228;32;33515;-69
2023/05/11 11:56:43;;;;;;;3.92;1.27;;;;;;;30.11;21.23;100321.66;5528614;32;34025;-68
2023/05/11 11:59:46;;;;;;;1.83;1.30;;;;;;;27.73;23.62;100323.38;5528548;32;33611;-68
2023/05/11 12:02:49;;;;;;;6.68;1.30;;;;;;;30.04;22.32;100321.19;5543576;32;34161;-68
2023/05/11 12:05:59;;;;;;;5.35;1.20;;;;;;;30.22;21.54;100323.06;5544833;32;34677;-68
2023/05/11 12:09:03;;;;;;;7.12;1.52;;;;;;;27.59;23.76;100324.00;5546442;32;33875;-68
2023/05/11 12:12:07;;;;;;;5.50;1.37;;;;;;;25.78;26.24;100306.06;5539986;32;33845;-67
2023/05/11 12:15:22;;;;;;;2.47;1.48;;;;;;;24.20;29.26;100315.28;5536558;32;33936;-67
2023/05/11 12:18:25;;;;;;;8.23;1.77;;;;;;;23.80;29.78;100306.75;5540029;32;34176;-68
2023/05/11 12:21:32;;;;;;;3.78;1.60;;;;;;;26.09;27.33;100304.19;5527859;32;34009;-67
2023/05/11 12:24:38;;;;;;;5.70;1.42;;;;;;;25.50;27.46;100301.91;5528260;32;33609;-67
2023/05/11 12:27:54;;;;;;;3.78;1.50;;;;;;;24.42;28.44;100293.47;5528003;32;33835;-67
2023/05/11 12:30:57;;;;;;;2.33;1.40;;;;;;;23.89;29.74;100288.94;5527968;32;33886;-67
2023/05/11 12:34:02;;;;;;;16.50;1.70;;;;;;;26.13;26.62;100294.41;5528178;32;33935;-66
2023/05/11 12:37:05;;;;;;;4.43;1.50;;;;;;;25.45;26.83;100291.84;5528209;32;34469;-69
2023/05/11 12:40:11;;;;;;;4.30;1.48;;;;;;;26.09;26.74;100287.87;5527766;32;33637;-67
2023/05/11 12:43:19;;;;;;;8.15;1.58;;;;;;;27.42;25.25;100287.28;5544094;32;33867;-68
2023/05/11 12:46:22;;;;;;;3.42;1.40;;;;;;;27.36;24.91;100283.75;5547456;32;33842;-69
2023/05/11 12:49:26;;;;;;;3.17;1.40;;;;;;;25.36;27.58;100279.03;5546905;32;34019;-67
2023/05/11 12:52:29;;;;;;;3.83;1.55;;;;;;;26.64;25.95;100278.84;5547010;32;33866;-69
2023/05/11 12:55:31;;;;;;;7.93;1.48;;;;;;;26.40;26.16;100270.47;5541726;32;33716;-67
2023/05/11 12:58:39;;;;;;;2.33;1.50;;;;;;;25.76;26.78;100267.44;5530243;32;33700;-68
2023/05/11 13:01:42;;;;;;;5.07;1.83;;;;;;;26.92;25.76;100275.53;5526073;32;33782;-67
2023/05/11 13:04:45;;;;;;;2.87;1.33;;;;;;;26.98;25.26;100276.31;5526956;32;33644;-67
2023/05/11 13:07:57;;;;;;;8.18;1.70;;;;;;;25.89;26.33;100258.78;5535510;32;34338;-67
2023/05/11 13:11:24;;;;;;;3.55;1.20;;;;;;;26.43;26.17;100267.22;5536326;32;33876;-67
2023/05/11 13:14:30;;;;;;;5.35;1.30;;;;;;;28.07;24.57;100245.97;5539590;32;33816;-68
2023/05/11 13:17:35;;;;;;;2.45;1.33;;;;;;;29.69;22.11;100244.03;5532294;32;33635;-67
2023/05/11 13:20:40;;;;;;;5.68;1.45;;;;;;;31.26;21.06;100256.78;5537647;32;34490;-67
2023/05/11 13:23:48;;;;;;;4.53;1.50;;;;;;;32.37;19.99;100254.09;5537771;32;33858;-67
2023/05/11 13:26:52;;;;;;;10.35;1.60;;;;;;;33.60;19.05;100242.78;5532641;32;34648;-70
2023/05/11 13:29:54;;;;;;;13.65;1.77;;;;;;;31.33;20.27;100251.66;5526743;32;33674;-69
2023/05/11 13:32:57;;;;;;;6.50;1.42;;;;;;;32.02;19.16;100230.28;5527523;32;33903;-69
2023/05/11 13:36:00;;;;;;;3.35;1.23;;;;;;;33.33;18.41;100234.06;5530621;32;35272;-69
2023/05/11 13:39:03;;;;;;;7.28;1.33;;;;;;;30.49;20.80;100232.84;5530244;32;33552;-68
2023/05/11 13:42:06;;;;;;;4.32;1.33;;;;;;;30.09;21.64;100226.16;5530320;32;34629;-70
2023/05/11 13:45:10;;;;;;;22.25;1.67;;;;;;;32.04;19.64;100230.78;5548897;32;33876;-69
2023/05/11 13:48:13;;;;;;;23.05;1.90;;;;;;;33.37;18.48;100232.28;5547780;32;34157;-68
2023/05/11 13:51:16;;;;;;;4.03;1.50;;;;;;;30.80;20.29;100215.78;5531281;32;34137;-67
2023/05/11 13:54:20;;;;;;;58.05;3.20;;;;;;;29.03;22.14;100210.56;5538049;32;33814;-68
2023/05/11 13:57:23;;;;;;;5.07;1.23;;;;;;;28.04;23.10;100210.25;5529457;32;34600;-69
2023/05/11 14:00:26;;;;;;;6.47;1.40;;;;;;;27.24;23.99;100204.31;5537379;32;33453;-67
2023/05/11 14:03:30;;;;;;;10.52;1.50;;;;;;;25.40;26.06;100201.38;5541080;32;35130;-68
2023/05/11 14:06:34;;;;;;;4.93;1.40;;;;;;;24.31;26.74;100198.75;5530686;32;34018;-68
2023/05/11 14:09:37;;;;;;;9.07;1.60;;;;;;;23.69;27.46;100197.47;5533333;32;33926;-67
2023/05/11 14:12:40;;;;;;;12.70;1.65;;;;;;;23.07;28.16;100188.19;5545347;32;34422;-68
2023/05/11 14:15:42;;;;;;;9.27;1.25;;;;;;;22.56;28.46;100182.13;5543898;32;34066;-67
2023/05/11 14:18:45;;;;;;;2.62;1.25;;;;;;;22.48;28.74;100193.37;5535623;32;33598;-68
2023/05/11 14:21:48;;;;;;;5.65;1.30;;;;;;;22.52;28.34;100189.09;5542879;32;34070;-68